Observations for CROTONE, Italy (LIBC)

LIBC 091850Z 22005KT 180V260 CAVOK 15/09 Q1009  
LIBC 091750Z 24012KT CAVOK 15/08 Q1010  
LIBC 091650Z 21013KT 180V240 CAVOK 14/10 Q1010  
LIBC 091550Z 23013KT CAVOK 14/10 Q1011  
LIBC 091450Z 24016KT CAVOK 15/09 Q1011  
LIBC 091350Z 25007KT CAVOK 16/07 Q1011  
LIBC 091250Z 24015KT CAVOK 17/07 Q1011  
LIBC 091150Z 24012KT 210V270 CAVOK 17/06 Q1013  
LIBC 091050Z 24010KT CAVOK 16/06 Q1014  
LIBC 090950Z 18006KT 150V210 CAVOK 15/06 Q1015  
LIBC 090850Z 13006KT CAVOK 14/08 Q1016  
LIBC 090750Z 19004KT CAVOK 12/09 Q1016  
LIBC 090700Z 20003KT CAVOK 09/07 Q1016